createdAt,value
2018-06-09T00:00:43.207Z,20.60
2018-06-09T00:01:43.793Z,20.67
2018-06-09T00:02:44.362Z,20.57
2018-06-09T00:03:44.911Z,20.57
2018-06-09T00:04:45.461Z,20.59
2018-06-09T00:05:46.008Z,20.57
2018-06-09T00:06:46.558Z,20.57
2018-06-09T00:07:47.114Z,20.51
2018-06-09T00:08:47.667Z,20.47
2018-06-09T00:09:48.221Z,20.40
2018-06-09T00:10:48.765Z,20.40
2018-06-09T00:11:49.321Z,20.31
2018-06-09T00:12:49.874Z,20.31
2018-06-09T00:13:50.421Z,20.28
2018-06-09T00:14:50.972Z,20.28
2018-06-09T00:15:51.526Z,20.28
2018-06-09T00:16:52.081Z,20.29
2018-06-09T00:17:52.633Z,20.29
2018-06-09T00:18:53.184Z,20.25
2018-06-09T00:19:53.737Z,20.19
2018-06-09T00:20:54.292Z,20.32
2018-06-09T00:21:54.843Z,20.22
2018-06-09T00:22:55.393Z,20.26
2018-06-09T00:23:55.942Z,20.10
2018-06-09T00:24:56.491Z,20.16
2018-06-09T00:25:57.038Z,20.17
2018-06-09T00:26:57.592Z,20.16
2018-06-09T00:27:58.143Z,20.17
2018-06-09T00:28:58.691Z,20.10
2018-06-09T00:29:59.244Z,20.02
2018-06-09T00:30:59.793Z,19.98
2018-06-09T00:32:00.344Z,19.98
2018-06-09T00:33:00.897Z,19.96
2018-06-09T00:34:01.446Z,20.02
2018-06-09T00:35:02.000Z,19.95
2018-06-09T00:36:02.551Z,19.89
2018-06-09T00:37:03.101Z,19.91
2018-06-09T00:38:03.656Z,19.89
2018-06-09T00:39:04.198Z,19.88
2018-06-09T00:40:04.747Z,19.85
2018-06-09T00:41:05.295Z,19.76
2018-06-09T00:42:05.847Z,19.81
2018-06-09T00:43:06.399Z,19.73
2018-06-09T00:44:06.951Z,19.71
2018-06-09T00:45:07.507Z,19.88
2018-06-09T00:46:08.060Z,19.74
2018-06-09T00:47:08.614Z,19.71
2018-06-09T00:48:09.165Z,19.74
2018-06-09T00:49:09.719Z,19.76
2018-06-09T00:50:10.270Z,19.74
2018-06-09T00:51:10.819Z,19.76
2018-06-09T00:52:11.371Z,19.76
2018-06-09T00:53:11.919Z,19.71
2018-06-09T00:54:12.472Z,19.73
2018-06-09T00:55:13.024Z,19.81
2018-06-09T00:56:13.575Z,19.94
2018-06-09T00:57:14.124Z,19.98
2018-06-09T00:58:14.671Z,19.89
2018-06-09T00:59:15.220Z,19.92
2018-06-09T01:00:15.772Z,19.94
2018-06-09T01:01:16.327Z,19.98
2018-06-09T01:02:16.878Z,19.95
2018-06-09T01:03:17.430Z,19.89
2018-06-09T01:04:17.977Z,19.95
2018-06-09T01:05:18.526Z,19.88
2018-06-09T01:06:19.078Z,19.95
2018-06-09T01:07:19.632Z,19.96
2018-06-09T01:08:20.187Z,19.99
2018-06-09T01:09:20.736Z,20.02
2018-06-09T01:10:21.284Z,20.02
2018-06-09T01:11:21.836Z,20.02
2018-06-09T01:12:22.388Z,20.04
2018-06-09T01:13:22.933Z,19.99
2018-06-09T01:14:23.491Z,20.03
2018-06-09T01:15:24.043Z,20.06
2018-06-09T01:16:24.592Z,20.04
2018-06-09T01:17:25.139Z,19.99
2018-06-09T01:18:25.701Z,20.13
2018-06-09T01:19:26.242Z,20.02
2018-06-09T01:20:26.798Z,20.10
2018-06-09T01:21:27.341Z,20.04
2018-06-09T01:22:27.893Z,20.13
2018-06-09T01:23:28.445Z,20.14
2018-06-09T01:24:28.995Z,20.14
2018-06-09T01:25:29.546Z,20.25
2018-06-09T01:26:30.101Z,20.16
2018-06-09T01:27:30.645Z,20.22
2018-06-09T01:28:31.196Z,20.24
2018-06-09T01:29:31.745Z,20.25
2018-06-09T01:30:32.294Z,20.28
2018-06-09T01:31:32.848Z,20.29
2018-06-09T01:32:33.402Z,20.28
2018-06-09T01:33:33.961Z,20.17
2018-06-09T01:34:34.508Z,20.25
2018-06-09T01:35:35.062Z,20.10
2018-06-09T01:36:35.612Z,20.17
2018-06-09T01:37:36.159Z,20.32
2018-06-09T01:38:36.714Z,20.32
2018-06-09T01:39:37.266Z,20.26
2018-06-09T01:40:37.824Z,20.25
2018-06-09T01:41:38.377Z,20.29
2018-06-09T01:42:38.930Z,20.26
2018-06-09T01:43:39.475Z,20.31
2018-06-09T01:44:40.032Z,20.40
2018-06-09T01:45:40.582Z,20.29
2018-06-09T01:46:41.137Z,20.28
2018-06-09T01:47:41.690Z,20.35
2018-06-09T01:48:42.242Z,20.25
2018-06-09T01:49:42.793Z,20.22
2018-06-09T01:50:43.340Z,20.26
2018-06-09T01:51:43.889Z,20.26
2018-06-09T01:52:44.436Z,20.29
2018-06-09T01:53:44.988Z,20.28
2018-06-09T01:54:45.545Z,20.36
2018-06-09T01:55:46.097Z,20.31
2018-06-09T01:56:46.646Z,20.35
2018-06-09T01:57:47.199Z,20.36
2018-06-09T01:58:47.756Z,20.29
2018-06-09T01:59:48.304Z,20.29
2018-06-09T02:00:48.863Z,20.35
2018-06-09T02:01:49.409Z,20.28
2018-06-09T02:02:49.957Z,20.31
2018-06-09T02:03:50.506Z,20.34
2018-06-09T02:04:51.056Z,20.21
2018-06-09T02:05:51.607Z,20.19
2018-06-09T02:06:52.158Z,20.34
2018-06-09T02:07:52.714Z,20.21
2018-06-09T02:08:53.261Z,20.19
2018-06-09T02:09:53.814Z,20.34
2018-06-09T02:10:54.365Z,20.31
2018-06-09T02:11:54.921Z,20.19
2018-06-09T02:12:55.466Z,20.21
2018-06-09T02:13:56.017Z,20.26
2018-06-09T02:14:56.567Z,20.36
2018-06-09T02:15:57.125Z,20.39
2018-06-09T02:16:57.679Z,20.42
2018-06-09T02:17:58.229Z,20.25
2018-06-09T02:18:58.784Z,20.28
2018-06-09T02:19:59.335Z,20.17
2018-06-09T02:20:59.886Z,20.29
2018-06-09T02:22:00.436Z,20.36
2018-06-09T02:23:00.991Z,20.29
2018-06-09T02:24:01.547Z,20.32
2018-06-09T02:25:02.100Z,20.34
2018-06-09T02:26:02.642Z,20.28
2018-06-09T02:27:03.191Z,20.32
2018-06-09T02:28:03.744Z,20.32
2018-06-09T02:29:04.298Z,20.28
2018-06-09T02:30:04.859Z,20.25
2018-06-09T02:31:05.410Z,20.24
2018-06-09T02:32:05.951Z,20.25
2018-06-09T02:33:06.498Z,20.21
2018-06-09T02:34:07.047Z,20.25
2018-06-09T02:35:07.595Z,20.25
2018-06-09T02:36:08.152Z,20.32
2018-06-09T02:37:08.700Z,20.29
2018-06-09T02:38:09.250Z,20.32
2018-06-09T02:39:09.797Z,20.32
2018-06-09T02:40:10.352Z,20.25
2018-06-09T02:41:10.905Z,20.29
2018-06-09T02:42:11.455Z,20.34
2018-06-09T02:43:12.002Z,20.32
2018-06-09T02:44:12.567Z,20.34
2018-06-09T02:45:13.109Z,20.34
2018-06-09T02:46:13.658Z,20.32
2018-06-09T02:47:14.208Z,20.35
2018-06-09T02:48:14.762Z,20.19
2018-06-09T02:49:15.309Z,20.29
2018-06-09T02:50:15.862Z,20.25
2018-06-09T02:51:16.411Z,20.11
2018-06-09T02:52:16.968Z,20.16
2018-06-09T02:53:17.511Z,20.13
2018-06-09T02:54:18.064Z,20.09
2018-06-09T02:55:18.617Z,20.14
2018-06-09T02:56:19.165Z,20.06
2018-06-09T02:57:19.713Z,20.02
2018-06-09T02:58:20.265Z,20.06
2018-06-09T02:59:20.815Z,20.02
2018-06-09T03:00:21.361Z,19.99
2018-06-09T03:01:21.912Z,20.03
2018-06-09T03:02:22.462Z,19.95
2018-06-09T03:03:23.008Z,19.91
2018-06-09T03:04:23.563Z,19.88
2018-06-09T03:05:24.108Z,19.91
2018-06-09T03:06:24.669Z,19.95
2018-06-09T03:07:25.216Z,19.91
2018-06-09T03:08:25.771Z,19.95
2018-06-09T03:09:26.324Z,19.96
2018-06-09T03:10:26.875Z,19.96
2018-06-09T03:11:27.426Z,19.92
2018-06-09T03:12:27.981Z,20.02
2018-06-09T03:13:28.546Z,19.94
2018-06-09T03:14:29.084Z,19.94
2018-06-09T03:15:29.634Z,19.94
2018-06-09T03:16:30.182Z,19.85
2018-06-09T03:17:30.735Z,19.80
2018-06-09T03:18:31.285Z,19.87
2018-06-09T03:19:31.844Z,19.74
2018-06-09T03:20:32.394Z,19.80
2018-06-09T03:21:32.947Z,19.79
2018-06-09T03:22:33.498Z,19.87
2018-06-09T03:23:34.049Z,19.84
2018-06-09T03:24:34.607Z,19.87
2018-06-09T03:25:35.161Z,19.87
2018-06-09T03:26:35.708Z,19.85
2018-06-09T03:27:36.263Z,19.81
2018-06-09T03:28:36.825Z,19.89
2018-06-09T03:29:37.375Z,19.79
2018-06-09T03:30:37.933Z,19.81
2018-06-09T03:31:38.486Z,19.76
2018-06-09T03:32:39.067Z,19.70
2018-06-09T03:33:39.588Z,19.77
2018-06-09T03:34:40.148Z,19.87
2018-06-09T03:35:40.698Z,19.81
2018-06-09T03:36:41.248Z,19.87
2018-06-09T03:37:41.803Z,19.81
2018-06-09T03:38:42.355Z,19.84
2018-06-09T03:39:42.908Z,19.73
2018-06-09T03:40:43.459Z,19.87
2018-06-09T03:41:44.014Z,19.79
2018-06-09T03:42:44.575Z,19.79
2018-06-09T03:43:45.128Z,19.71
2018-06-09T03:44:45.678Z,19.79
2018-06-09T03:45:46.230Z,19.71
2018-06-09T03:46:46.784Z,19.69
2018-06-09T03:47:47.339Z,19.74
2018-06-09T03:48:47.934Z,19.74
2018-06-09T03:49:48.447Z,19.67
2018-06-09T03:50:49.003Z,19.61
2018-06-09T03:51:49.557Z,19.58
2018-06-09T03:52:50.106Z,19.55
2018-06-09T03:53:50.664Z,19.52
2018-06-09T03:54:51.219Z,19.43
2018-06-09T03:55:51.776Z,19.44
2018-06-09T03:56:52.323Z,19.48
2018-06-09T03:57:52.882Z,19.52
2018-06-09T03:58:53.445Z,19.55
2018-06-09T03:59:53.990Z,19.49
2018-06-09T04:00:54.547Z,19.43
2018-06-09T04:01:55.102Z,19.40
2018-06-09T04:02:55.656Z,19.41
2018-06-09T04:03:56.210Z,19.39
2018-06-09T04:04:56.765Z,19.40
2018-06-09T04:05:57.317Z,19.39
2018-06-09T04:06:57.869Z,19.31
2018-06-09T04:07:58.425Z,19.41
2018-06-09T04:08:58.985Z,19.39
2018-06-09T04:09:59.536Z,19.40
2018-06-09T04:11:00.087Z,19.44
2018-06-09T04:12:00.642Z,19.44
2018-06-09T04:13:01.198Z,19.47
2018-06-09T04:14:01.756Z,19.44
2018-06-09T04:15:02.311Z,19.40
2018-06-09T04:16:02.977Z,19.36
2018-06-09T04:17:03.531Z,19.39
2018-06-09T04:18:04.088Z,19.41
2018-06-09T04:19:04.663Z,19.36
2018-06-09T04:20:05.199Z,19.40
2018-06-09T04:21:05.955Z,19.44
2018-06-09T04:22:06.511Z,19.37
2018-06-09T04:23:07.069Z,19.43
2018-06-09T04:24:07.622Z,19.54
2018-06-09T04:25:08.176Z,19.48
2018-06-09T04:26:08.733Z,19.43
2018-06-09T04:27:09.290Z,19.51
2018-06-09T04:28:09.843Z,19.47
2018-06-09T04:29:10.404Z,19.48
2018-06-09T04:30:10.956Z,19.44
2018-06-09T04:31:11.509Z,19.41
2018-06-09T04:32:12.067Z,19.41
2018-06-09T04:33:12.622Z,19.39
2018-06-09T04:34:13.178Z,19.44
2018-06-09T04:35:13.744Z,19.31
2018-06-09T04:36:14.293Z,19.43
2018-06-09T04:37:14.844Z,19.27
2018-06-09T04:38:15.395Z,19.21
2018-06-09T04:39:15.950Z,19.30
2018-06-09T04:40:16.509Z,19.25
2018-06-09T04:41:17.069Z,19.31
2018-06-09T04:42:17.614Z,19.39
2018-06-09T04:43:18.166Z,19.29
2018-06-09T04:44:18.720Z,19.39
2018-06-09T04:45:19.276Z,19.29
2018-06-09T04:46:19.834Z,19.30
2018-06-09T04:47:20.388Z,19.27
2018-06-09T04:48:20.941Z,19.31
2018-06-09T04:49:21.603Z,19.30
2018-06-09T04:50:22.159Z,19.36
2018-06-09T04:51:22.714Z,19.25
2018-06-09T04:52:23.274Z,19.30
2018-06-09T04:53:23.831Z,19.24
2018-06-09T04:54:24.391Z,19.24
2018-06-09T04:55:24.942Z,19.33
2018-06-09T04:56:25.507Z,19.24
2018-06-09T04:57:26.049Z,19.29
2018-06-09T04:58:26.654Z,19.31
2018-06-09T04:59:27.160Z,19.27
2018-06-09T05:00:27.722Z,19.29
2018-06-09T05:01:28.273Z,19.30
2018-06-09T05:02:28.826Z,19.12
2018-06-09T05:03:29.384Z,19.19
2018-06-09T05:04:29.940Z,19.18
2018-06-09T05:05:30.499Z,19.22
2018-06-09T05:06:31.055Z,19.18
2018-06-09T05:07:31.606Z,19.16
2018-06-09T05:08:32.157Z,19.25
2018-06-09T05:09:32.714Z,19.27
2018-06-09T05:10:33.274Z,19.15
2018-06-09T05:11:33.830Z,19.29
2018-06-09T05:12:34.387Z,19.22
2018-06-09T05:13:34.944Z,19.21
2018-06-09T05:14:35.503Z,19.15
2018-06-09T05:15:36.058Z,19.25
2018-06-09T05:16:36.619Z,19.16
2018-06-09T05:17:37.172Z,19.19
2018-06-09T05:18:37.728Z,19.31
2018-06-09T05:19:38.284Z,19.34
2018-06-09T05:20:38.841Z,19.18
2018-06-09T05:21:39.392Z,19.14
2018-06-09T05:22:39.949Z,19.29
2018-06-09T05:23:40.506Z,19.11
2018-06-09T05:24:41.058Z,19.16
2018-06-09T05:25:41.610Z,19.34
2018-06-09T05:26:42.164Z,19.21
2018-06-09T05:27:42.720Z,19.24
2018-06-09T05:28:43.277Z,19.30
2018-06-09T05:29:43.829Z,19.31
2018-06-09T05:30:44.388Z,19.22
2018-06-09T05:31:44.943Z,19.25
2018-06-09T05:32:45.501Z,19.37
2018-06-09T05:33:46.058Z,19.39
2018-06-09T05:34:46.620Z,19.41
2018-06-09T05:35:47.182Z,19.40
2018-06-09T05:36:47.739Z,19.47
2018-06-09T05:37:48.295Z,19.43
2018-06-09T05:38:48.860Z,19.47
2018-06-09T05:39:49.413Z,19.47
2018-06-09T05:40:49.973Z,19.49
2018-06-09T05:41:50.525Z,19.52
2018-06-09T05:42:51.083Z,19.59
2018-06-09T05:43:51.640Z,19.58
2018-06-09T05:44:52.198Z,19.58
2018-06-09T05:45:52.760Z,19.49
2018-06-09T05:46:53.314Z,19.58
2018-06-09T05:47:53.872Z,19.62
2018-06-09T05:48:54.430Z,19.66
2018-06-09T05:49:54.983Z,19.69
2018-06-09T05:50:55.540Z,19.70
2018-06-09T05:51:56.094Z,19.61
2018-06-09T05:52:56.645Z,19.62
2018-06-09T05:53:57.198Z,19.64
2018-06-09T05:54:57.757Z,19.64
2018-06-09T05:55:58.316Z,19.61
2018-06-09T05:56:58.874Z,19.66
2018-06-09T05:57:59.434Z,19.70
2018-06-09T05:58:59.994Z,19.54
2018-06-09T06:00:00.551Z,19.55
2018-06-09T06:01:01.108Z,19.58
2018-06-09T06:02:01.673Z,19.62
2018-06-09T06:03:02.228Z,19.64
2018-06-09T06:04:02.802Z,19.66
2018-06-09T06:05:03.330Z,19.66
2018-06-09T06:06:03.884Z,19.61
2018-06-09T06:07:04.439Z,19.64
2018-06-09T06:08:04.999Z,19.58
2018-06-09T06:09:05.556Z,19.66
2018-06-09T06:10:06.120Z,19.70
2018-06-09T06:11:06.674Z,19.81
2018-06-09T06:12:07.235Z,19.70
2018-06-09T06:13:07.793Z,19.71
2018-06-09T06:14:08.346Z,19.59
2018-06-09T06:15:08.905Z,19.69
2018-06-09T06:16:09.464Z,19.64
2018-06-09T06:17:10.023Z,19.62
2018-06-09T06:18:10.578Z,19.64
2018-06-09T06:19:11.133Z,19.66
2018-06-09T06:20:11.687Z,19.70
2018-06-09T06:21:12.246Z,19.66
2018-06-09T06:22:12.802Z,19.58
2018-06-09T06:23:13.362Z,19.59
2018-06-09T06:24:13.921Z,19.76
2018-06-09T06:25:14.480Z,19.80
2018-06-09T06:26:15.035Z,19.71
2018-06-09T06:27:15.598Z,19.76
2018-06-09T06:28:16.156Z,19.71
2018-06-09T06:29:16.711Z,19.79
2018-06-09T06:30:17.270Z,19.73
2018-06-09T06:31:17.825Z,19.70
2018-06-09T06:32:18.386Z,19.74
2018-06-09T06:33:18.951Z,19.73
2018-06-09T06:34:19.502Z,19.77
2018-06-09T06:35:20.063Z,19.71
2018-06-09T06:36:20.627Z,19.73
2018-06-09T06:37:21.188Z,19.87
2018-06-09T06:38:21.741Z,19.84
2018-06-09T06:39:22.300Z,19.85
2018-06-09T06:40:22.857Z,19.89
2018-06-09T06:41:23.417Z,19.91
2018-06-09T06:42:23.976Z,19.99
2018-06-09T06:43:24.534Z,20.10
2018-06-09T06:44:25.090Z,20.17
2018-06-09T06:45:25.642Z,20.17
2018-06-09T06:46:26.204Z,20.10
2018-06-09T06:47:26.753Z,20.24
2018-06-09T06:48:27.318Z,20.11
2018-06-09T06:49:27.870Z,20.14
2018-06-09T06:50:28.431Z,20.10
2018-06-09T06:51:28.983Z,20.17
2018-06-09T06:52:29.545Z,20.10
2018-06-09T06:53:30.105Z,20.03
2018-06-09T06:54:30.663Z,20.07
2018-06-09T06:55:31.224Z,20.16
2018-06-09T06:56:31.823Z,20.14
2018-06-09T06:57:32.336Z,20.21
2018-06-09T06:58:32.895Z,20.19
2018-06-09T06:59:33.456Z,20.25
2018-06-09T07:00:34.018Z,20.35
2018-06-09T07:01:34.580Z,20.29
2018-06-09T07:02:35.140Z,20.25
2018-06-09T07:03:35.697Z,20.34
2018-06-09T07:04:36.253Z,20.26
2018-06-09T07:05:36.820Z,20.32
2018-06-09T07:06:37.377Z,20.31
2018-06-09T07:07:37.936Z,20.35
2018-06-09T07:08:38.506Z,20.36
2018-06-09T07:09:39.046Z,20.54
2018-06-09T07:10:39.612Z,20.63
2018-06-09T07:11:40.167Z,20.59
2018-06-09T07:12:40.721Z,20.59
2018-06-09T07:13:41.276Z,20.43
2018-06-09T07:14:41.836Z,20.40
2018-06-09T07:15:42.394Z,20.44
2018-06-09T07:16:42.956Z,20.42
2018-06-09T07:17:43.515Z,20.52
2018-06-09T07:18:44.077Z,20.60
2018-06-09T07:19:44.637Z,20.55
2018-06-09T07:20:45.202Z,20.54
2018-06-09T07:21:45.761Z,20.54
2018-06-09T07:22:46.328Z,20.63
2018-06-09T07:23:46.886Z,20.66
2018-06-09T07:24:47.444Z,20.75
2018-06-09T07:25:48.006Z,20.80
2018-06-09T07:26:48.563Z,20.77
2018-06-09T07:27:49.122Z,20.77
2018-06-09T07:28:49.682Z,20.88
2018-06-09T07:29:50.239Z,20.91
2018-06-09T07:30:50.803Z,20.96
2018-06-09T07:31:51.369Z,20.98
2018-06-09T07:32:51.932Z,21.06
2018-06-09T07:33:52.485Z,21.10
2018-06-09T07:34:53.047Z,21.05
2018-06-09T07:35:53.600Z,21.14
2018-06-09T07:36:54.160Z,21.14
2018-06-09T07:37:54.729Z,21.28
2018-06-09T07:38:55.281Z,21.45
2018-06-09T07:39:55.843Z,21.58
2018-06-09T07:40:56.399Z,21.61
2018-06-09T07:41:56.959Z,21.64
2018-06-09T07:42:57.522Z,21.61
2018-06-09T07:43:58.083Z,21.76
2018-06-09T07:44:58.643Z,21.86
2018-06-09T07:45:59.210Z,21.86
2018-06-09T07:46:59.764Z,21.86
2018-06-09T07:48:00.378Z,21.92
2018-06-09T07:49:00.898Z,21.93
2018-06-09T07:50:01.442Z,21.95
2018-06-09T07:51:02.009Z,21.91
2018-06-09T07:52:02.567Z,21.95
2018-06-09T07:53:03.128Z,21.91
2018-06-09T07:54:03.703Z,21.95
2018-06-09T07:55:04.248Z,21.95
2018-06-09T07:56:04.807Z,21.86
2018-06-09T07:57:05.382Z,21.95
2018-06-09T07:58:05.934Z,22.05
2018-06-09T07:59:06.492Z,22.13
2018-06-09T08:00:07.058Z,22.23
2018-06-09T08:01:07.619Z,22.29
2018-06-09T08:02:08.180Z,22.29
2018-06-09T08:03:08.737Z,22.31
2018-06-09T08:04:09.300Z,22.36
2018-06-09T08:05:09.862Z,22.35
2018-06-09T08:06:10.426Z,22.24
2018-06-09T08:07:10.989Z,22.23
2018-06-09T08:08:11.549Z,22.31
2018-06-09T08:09:12.110Z,22.21
2018-06-09T08:10:12.677Z,22.24
2018-06-09T08:11:13.231Z,22.46
2018-06-09T08:12:13.791Z,22.51
2018-06-09T08:13:14.347Z,22.63
2018-06-09T08:14:14.906Z,22.63
2018-06-09T08:15:15.463Z,22.62
2018-06-09T08:16:16.031Z,22.60
2018-06-09T08:17:16.590Z,22.65
2018-06-09T08:18:17.149Z,22.72
2018-06-09T08:19:17.709Z,22.72
2018-06-09T08:20:18.274Z,22.70
2018-06-09T08:21:18.839Z,22.78
2018-06-09T08:22:19.402Z,22.83
2018-06-09T08:23:19.964Z,22.94
2018-06-09T08:24:20.527Z,23.23
2018-06-09T08:25:21.084Z,23.34
2018-06-09T08:26:21.643Z,23.37
2018-06-09T08:27:22.209Z,23.25
2018-06-09T08:28:22.770Z,23.25
2018-06-09T08:29:23.331Z,23.08
2018-06-09T08:30:23.899Z,23.09
2018-06-09T08:31:24.465Z,23.18
2018-06-09T08:32:25.027Z,23.24
2018-06-09T08:33:25.598Z,23.34
2018-06-09T08:34:26.155Z,23.50
2018-06-09T08:35:26.718Z,23.66
2018-06-09T08:36:27.338Z,23.65
2018-06-09T08:37:27.842Z,23.56
2018-06-09T08:38:28.405Z,23.53
2018-06-09T08:39:28.971Z,23.84
2018-06-09T08:40:29.538Z,23.98
2018-06-09T08:41:30.107Z,24.06
2018-06-09T08:42:30.671Z,23.79
2018-06-09T08:43:31.237Z,23.68
2018-06-09T08:44:31.804Z,23.62
2018-06-09T08:45:32.371Z,23.79
2018-06-09T08:46:32.939Z,23.99
2018-06-09T08:47:33.503Z,24.17
2018-06-09T08:48:34.063Z,24.09
2018-06-09T08:49:34.630Z,24.14
2018-06-09T08:50:35.197Z,24.31
2018-06-09T08:51:35.756Z,24.56
2018-06-09T08:52:36.321Z,24.61
2018-06-09T08:53:36.890Z,24.69
2018-06-09T08:54:37.493Z,24.57
2018-06-09T08:55:38.026Z,24.48
2018-06-09T08:56:38.595Z,24.42
2018-06-09T08:57:39.157Z,24.68
2018-06-09T08:58:39.728Z,25.09
2018-06-09T08:59:40.297Z,24.99
2018-06-09T09:00:40.910Z,25.25
2018-06-09T09:01:41.436Z,25.09
2018-06-09T09:02:42.006Z,24.96
2018-06-09T09:03:42.570Z,25.07
2018-06-09T09:04:43.139Z,25.36
2018-06-09T09:05:43.707Z,25.72
2018-06-09T09:06:44.276Z,25.94
2018-06-09T09:07:44.838Z,25.87
2018-06-09T09:08:45.418Z,25.93
2018-06-09T09:09:45.977Z,26.36
2018-06-09T09:10:46.546Z,26.55
2018-06-09T09:11:47.117Z,26.31
2018-06-09T09:12:47.684Z,26.02
2018-06-09T09:13:48.248Z,26.05
2018-06-09T09:14:48.823Z,26.05
2018-06-09T09:15:49.385Z,25.88
2018-06-09T09:16:49.951Z,25.84
2018-06-09T09:17:50.513Z,25.72
2018-06-09T09:18:51.081Z,26.03
2018-06-09T09:19:51.651Z,26.40
2018-06-09T09:20:52.218Z,26.69
2018-06-09T09:21:52.782Z,27.05
2018-06-09T09:22:53.351Z,27.45
2018-06-09T09:23:53.923Z,27.74
2018-06-09T09:24:54.481Z,27.62
2018-06-09T09:25:55.094Z,27.54
2018-06-09T09:26:55.619Z,27.76
2018-06-09T09:27:56.192Z,28.05
2018-06-09T09:28:56.762Z,28.32
2018-06-09T09:29:57.325Z,28.50
2018-06-09T09:30:57.899Z,28.33
2018-06-09T09:31:58.464Z,28.42
2018-06-09T09:32:59.032Z,28.44
2018-06-09T09:33:59.605Z,28.66
2018-06-09T09:35:00.195Z,29.17
2018-06-09T09:36:00.751Z,29.35
2018-06-09T09:37:01.315Z,29.54
2018-06-09T09:38:01.891Z,29.74
2018-06-09T09:39:02.470Z,29.67
2018-06-09T09:40:03.036Z,29.64
2018-06-09T09:41:03.607Z,29.57
2018-06-09T09:42:04.179Z,29.39
2018-06-09T09:43:04.742Z,29.13
2018-06-09T09:44:05.311Z,29.19
2018-06-09T09:45:05.880Z,29.64
2018-06-09T09:46:06.450Z,29.94
2018-06-09T09:47:07.023Z,30.08
2018-06-09T09:48:07.596Z,30.13
2018-06-09T09:49:08.165Z,30.11
2018-06-09T09:50:08.730Z,30.27
2018-06-09T09:51:09.302Z,30.47
2018-06-09T09:52:09.874Z,30.69
2018-06-09T09:53:10.440Z,30.71
2018-06-09T09:54:11.006Z,30.69
2018-06-09T09:55:11.580Z,30.50
2018-06-09T09:56:12.150Z,30.15
2018-06-09T09:57:12.735Z,29.90
2018-06-09T09:58:13.293Z,29.41
2018-06-09T09:59:13.864Z,29.19
2018-06-09T10:00:14.439Z,29.25
2018-06-09T10:01:15.006Z,29.26
2018-06-09T10:02:15.574Z,29.32
2018-06-09T10:03:16.143Z,29.57
2018-06-09T10:04:16.715Z,29.64
2018-06-09T10:05:17.287Z,29.72
2018-06-09T10:06:17.856Z,29.85
2018-06-09T10:07:18.431Z,29.85
2018-06-09T10:08:19.001Z,30.00
2018-06-09T10:09:19.581Z,30.03
2018-06-09T10:10:20.150Z,30.11
2018-06-09T10:11:20.718Z,30.11
2018-06-09T10:12:21.291Z,29.78
2018-06-09T10:13:21.864Z,29.59
2018-06-09T10:14:22.431Z,29.42
2018-06-09T10:15:23.003Z,29.35
2018-06-09T10:16:23.576Z,29.25
2018-06-09T10:17:24.144Z,29.50
2018-06-09T10:18:24.711Z,29.89
2018-06-09T10:19:25.278Z,30.13
2018-06-09T10:20:25.853Z,30.73
2018-06-09T10:21:26.426Z,31.01
2018-06-09T10:22:27.000Z,31.18
2018-06-09T10:23:27.569Z,31.12
2018-06-09T10:24:28.139Z,31.08
2018-06-09T10:25:28.719Z,30.80
2018-06-09T10:26:29.284Z,30.66
2018-06-09T10:27:29.856Z,30.50
2018-06-09T10:28:30.426Z,30.24
2018-06-09T10:29:30.997Z,30.19
2018-06-09T10:30:31.567Z,30.38
2018-06-09T10:31:32.188Z,30.71
2018-06-09T10:32:32.713Z,31.03
2018-06-09T10:33:33.278Z,31.27
2018-06-09T10:34:33.844Z,31.24
2018-06-09T10:35:34.411Z,31.23
2018-06-09T10:36:34.982Z,31.43
2018-06-09T10:37:35.554Z,31.79
2018-06-09T10:38:36.139Z,32.05
2018-06-09T10:39:36.699Z,32.27
2018-06-09T10:40:37.266Z,32.33
2018-06-09T10:41:37.833Z,31.82
2018-06-09T10:42:38.405Z,31.50
2018-06-09T10:43:38.971Z,31.36
2018-06-09T10:44:39.541Z,31.28
2018-06-09T10:45:40.118Z,31.01
2018-06-09T10:46:40.691Z,31.09
2018-06-09T10:47:41.263Z,31.31
2018-06-09T10:48:41.838Z,31.52
2018-06-09T10:49:42.414Z,31.90
2018-06-09T10:50:42.987Z,32.27
2018-06-09T10:51:43.558Z,32.27
2018-06-09T10:52:44.129Z,32.43
2018-06-09T10:53:44.702Z,32.33
2018-06-09T10:54:45.271Z,32.07
2018-06-09T10:55:45.845Z,31.92
2018-06-09T10:56:46.411Z,31.96
2018-06-09T10:57:46.983Z,32.05
2018-06-09T10:58:47.552Z,32.30
2018-06-09T10:59:48.124Z,32.14
2018-06-09T11:00:48.697Z,32.25
2018-06-09T11:01:49.265Z,32.25
2018-06-09T11:02:49.838Z,32.17
2018-06-09T11:03:50.412Z,32.07
2018-06-09T11:04:50.983Z,31.84
2018-06-09T11:05:51.548Z,31.74
2018-06-09T11:06:52.118Z,31.65
2018-06-09T11:07:52.683Z,31.68
2018-06-09T11:08:53.259Z,31.87
2018-06-09T11:09:53.832Z,31.95
2018-06-09T11:10:54.405Z,31.97
2018-06-09T11:11:54.972Z,32.15
2018-06-09T11:12:55.551Z,32.33
2018-06-09T11:13:56.125Z,32.66
2018-06-09T11:14:56.694Z,32.61
2018-06-09T11:15:57.269Z,32.96
2018-06-09T11:16:57.829Z,32.92
2018-06-09T11:17:58.399Z,32.56
2018-06-09T11:18:58.977Z,32.36
2018-06-09T11:19:59.552Z,32.03
2018-06-09T11:21:00.120Z,31.93
2018-06-09T11:22:00.691Z,31.73
2018-06-09T11:23:01.258Z,31.97
2018-06-09T11:24:01.828Z,32.05
2018-06-09T11:25:02.399Z,32.37
2018-06-09T11:26:02.967Z,32.49
2018-06-09T11:27:03.540Z,32.58
2018-06-09T11:28:04.117Z,32.58
2018-06-09T11:29:04.686Z,32.66
2018-06-09T11:30:05.262Z,32.33
2018-06-09T11:31:05.836Z,32.49
2018-06-09T11:32:06.410Z,32.66
2018-06-09T11:33:06.977Z,32.89
2018-06-09T11:34:07.553Z,33.10
2018-06-09T11:35:08.124Z,33.31
2018-06-09T11:36:08.698Z,33.34
2018-06-09T11:37:09.272Z,33.45
2018-06-09T11:38:09.854Z,33.10
2018-06-09T11:39:54.597Z,33.41
2018-06-09T11:40:55.182Z,33.74
2018-06-09T11:41:55.788Z,33.70
2018-06-09T11:42:56.395Z,34.07
2018-06-09T11:43:56.980Z,34.02
2018-06-09T11:44:57.545Z,33.92
2018-06-09T11:45:58.121Z,33.89
2018-06-09T11:46:58.693Z,34.13
2018-06-09T11:47:59.268Z,34.16
2018-06-09T11:48:59.841Z,34.23
2018-06-09T11:50:00.413Z,34.29
2018-06-09T11:51:00.988Z,34.21
2018-06-09T11:52:01.576Z,34.19
2018-06-09T11:53:02.142Z,34.27
2018-06-09T11:54:02.740Z,34.51
2018-06-09T11:55:03.301Z,34.46
2018-06-09T11:56:03.877Z,34.71
2018-06-09T11:57:04.454Z,34.86
2018-06-09T11:58:05.031Z,34.99
2018-06-09T11:59:05.604Z,34.73
2018-06-09T12:00:06.180Z,34.20
2018-06-09T12:01:06.752Z,34.21
2018-06-09T12:02:07.328Z,33.95
2018-06-09T12:03:07.897Z,33.58
2018-06-09T12:04:08.471Z,33.43
2018-06-09T12:05:09.041Z,33.26
2018-06-09T12:06:09.623Z,32.85
2018-06-09T12:07:10.197Z,32.92
2018-06-09T12:08:10.769Z,32.77
2018-06-09T12:09:11.343Z,32.78
2018-06-09T12:10:11.920Z,32.76
2018-06-09T12:11:12.493Z,32.88
2018-06-09T12:12:13.066Z,32.98
2018-06-09T12:13:13.631Z,33.34
2018-06-09T12:14:14.209Z,33.72
2018-06-09T12:15:14.782Z,33.71
2018-06-09T12:16:15.362Z,33.68
2018-06-09T12:17:15.938Z,33.89
2018-06-09T12:18:16.543Z,34.19
2018-06-09T12:19:17.090Z,34.50
2018-06-09T12:20:17.660Z,34.61
2018-06-09T12:21:18.227Z,34.81
2018-06-09T12:22:18.803Z,34.67
2018-06-09T12:23:19.373Z,34.83
2018-06-09T12:24:19.948Z,34.93
2018-06-09T12:25:20.553Z,34.86
2018-06-09T12:26:21.156Z,34.96
2018-06-09T12:27:21.696Z,35.14
2018-06-09T12:28:22.290Z,35.11
2018-06-09T12:29:22.850Z,35.10
2018-06-09T12:30:23.420Z,35.20
2018-06-09T12:31:23.989Z,35.45
2018-06-09T12:32:24.607Z,35.67
2018-06-09T12:33:25.134Z,35.57
2018-06-09T12:34:25.706Z,35.32
2018-06-09T12:35:26.312Z,34.70
2018-06-09T12:36:26.861Z,34.60
2018-06-09T12:37:27.434Z,34.54
2018-06-09T12:38:27.996Z,34.38
2018-06-09T12:39:28.664Z,34.24
2018-06-09T12:40:29.141Z,34.13
2018-06-09T12:41:29.710Z,34.17
2018-06-09T12:42:30.272Z,34.17
2018-06-09T12:43:30.849Z,34.13
2018-06-09T12:44:31.424Z,33.90
2018-06-09T12:45:31.994Z,33.58
2018-06-09T12:46:32.571Z,33.37
2018-06-09T12:47:33.178Z,33.22
2018-06-09T12:48:33.819Z,33.36
2018-06-09T12:49:34.324Z,33.42
2018-06-09T12:50:34.901Z,33.58
2018-06-09T12:51:35.494Z,33.76
2018-06-09T12:52:36.077Z,33.55
2018-06-09T12:53:36.653Z,33.37
2018-06-09T12:54:37.227Z,32.83
2018-06-09T12:55:37.851Z,32.61
2018-06-09T12:56:38.411Z,32.70
2018-06-09T12:57:38.977Z,32.91
2018-06-09T12:58:39.548Z,33.31
2018-06-09T12:59:40.121Z,33.53
2018-06-09T13:00:40.699Z,33.92